KHWY

Warrenton-Fauquier Airport

Warrenton, Virginia, USA
METAR KHWY 211435Z AUTO 06005KT 10SM SCT055 24/14 A3021 RMK AO2 T02380144
Observed Flight Rules
May-21 @ 14:35 UTC (26 minutes ago) Visual Flight Rules
Wind Visibility Clouds
60° at 5 knots 10 miles
  • Scattered at 5,500' AGL
Temperatures Readings
Current 24°C / 75°F
Dewpoint 14°C / 57°F
Humidity 54%
Altimeter 30.21" Hg
Pressure 1023 hPa
Elevation 103
METAR KHWY 211435Z AUTO 06005KT 10SM SCT055 24/14 A3021 RMK AO2 T02380144
Observed Flight Rules
May-21 @ 14:35 UTC
(26 minutes ago)
VFR
Wind Visibility
60° at 5 knots 10 miles
Clouds
  • Scattered at 5,500' AGL
Temperature Dewpoint
24°C / 75°F 14°C / 57°F
Humidity Altimeter Pressure
54% 30.21" Hg 1023 hPa